Time;durP1;ratioP1;P1;durP2;ratioP2;P2;SDS_P1;SDS_P2;PMS_P1;PMS_P2;Temp;Humidity;BMP_temperature;BMP_pressure;BME280_temperature;BME280_humidity;BME280_pressure;Samples;Min_cycle;Max_cycle;Signal;HPM_P1;HPM_P2
2022/08/06 00:00:08;;;;;;;2.50;2.30;;;16.90;1.00;;;;;;6283945;28;20241;-55
2022/08/06 00:03:12;;;;;;;2.30;2.20;;;16.90;1.00;;;;;;6282625;28;20312;-55
2022/08/06 00:06:15;;;;;;;2.53;2.33;;;16.80;1.00;;;;;;6286155;28;20248;-54
2022/08/06 00:09:22;;;;;;;2.43;2.23;;;16.80;1.00;;;;;;6283623;28;20746;-55
2022/08/06 00:12:24;;;;;;;2.67;2.57;;;16.80;1.00;;;;;;6261733;28;20234;-54
2022/08/06 00:15:32;;;;;;;2.80;2.70;;;16.70;1.00;;;;;;6254159;28;20746;-55
2022/08/06 00:18:54;;;;;;;2.00;2.00;;;16.70;1.00;;;;;;6261293;28;20620;-54
2022/08/06 00:21:58;;;;;;;2.23;2.10;;;16.60;1.00;;;;;;6262072;28;20872;-55
2022/08/06 00:25:03;;;;;;;2.07;2.07;;;16.60;1.00;;;;;;6283640;28;20308;-54
2022/08/06 00:28:06;;;;;;;2.37;2.27;;;16.60;1.00;;;;;;6285912;28;20367;-54
2022/08/06 00:31:13;;;;;;;2.20;2.10;;;16.60;1.00;;;;;;6274514;28;20723;-54
2022/08/06 00:34:16;;;;;;;2.27;2.10;;;16.50;1.00;;;;;;6277609;28;20229;-55
2022/08/06 00:37:19;;;;;;;2.40;2.20;;;16.50;1.00;;;;;;6286400;28;20316;-54
2022/08/06 00:40:32;;;;;;;2.37;2.27;;;16.40;1.00;;;;;;6274754;28;20231;-53
2022/08/06 00:43:52;;;;;;;2.43;2.33;;;16.40;1.00;;;;;;6261106;28;20362;-54
2022/08/06 00:46:55;;;;;;;2.73;2.50;;;16.30;1.00;;;;;;6260800;28;20329;-54
2022/08/06 00:49:58;;;;;;;2.37;2.30;;;16.20;1.00;;;;;;6260890;28;20265;-53
2022/08/06 00:53:04;;;;;;;2.47;2.20;;;16.20;1.00;;;;;;6266616;28;20225;-55
2022/08/06 00:56:12;;;;;;;2.30;2.20;;;16.10;1.00;;;;;;6284161;28;20294;-55
2022/08/06 00:59:15;;;;;;;2.50;2.30;;;16.10;1.00;;;;;;6260470;28;20241;-53
2022/08/06 01:02:20;;;;;;;2.40;2.10;;;16.00;1.00;;;;;;6261965;28;20697;-53
2022/08/06 01:05:28;;;;;;;2.17;2.03;;;16.00;1.00;;;;;;6277025;28;20238;-54
2022/08/06 01:08:51;;;;;;;1.90;1.90;;;15.90;1.00;;;;;;6284211;28;20237;-54
2022/08/06 01:11:55;;;;;;;2.17;2.07;;;15.90;1.00;;;;;;6282494;28;20395;-56
2022/08/06 01:15:02;;;;;;;2.87;2.27;;;15.90;1.00;;;;;;6259828;28;20238;-54
2022/08/06 01:18:11;;;;;;;2.27;2.23;;;15.80;1.00;;;;;;6263660;28;20780;-54
2022/08/06 01:21:28;;;;;;;2.10;2.00;;;15.80;1.00;;;;;;6278474;28;20230;-54
2022/08/06 01:25:02;;;;;;;5.03;2.17;;;15.80;1.00;;;;;;6281232;28;20244;-54
2022/08/06 01:28:13;;;;;;;2.00;2.00;;;15.70;1.00;;;;;;6284643;28;20230;-54
2022/08/06 01:31:20;;;;;;;1.90;1.80;;;15.60;1.00;;;;;;6270061;28;20226;-55
2022/08/06 01:34:28;;;;;;;2.07;1.90;;;15.60;1.00;;;;;;6277238;28;20251;-54
2022/08/06 01:37:39;;;;;;;1.90;1.90;;;15.50;1.00;;;;;;6283529;28;20583;-55
2022/08/06 01:40:47;;;;;;;2.23;2.10;;;15.50;1.00;;;;;;6274100;28;20229;-55
2022/08/06 01:43:55;;;;;;;2.00;2.00;;;15.50;1.00;;;;;;6284277;28;20701;-55
2022/08/06 01:47:17;;;;;;;2.00;2.00;;;15.40;1.00;;;;;;6274442;28;20609;-55
2022/08/06 01:50:28;;;;;;;2.57;2.17;;;15.50;1.00;;;;;;6264790;28;20248;-55
2022/08/06 01:53:36;;;;;;;2.20;2.10;;;15.50;1.00;;;;;;6268558;28;20593;-55
2022/08/06 01:57:02;;;;;;;1.83;1.83;;;15.40;1.00;;;;;;6282982;28;20357;-54
2022/08/06 02:00:12;;;;;;;2.20;2.10;;;15.40;1.00;;;;;;6260330;28;20265;-54
2022/08/06 02:03:25;;;;;;;1.83;1.83;;;15.40;1.00;;;;;;6267014;28;20233;-53
2022/08/06 02:06:44;;;;;;;1.80;1.80;;;15.30;1.00;;;;;;6282636;28;20237;-56
2022/08/06 02:09:53;;;;;;;1.80;1.80;;;15.30;1.00;;;;;;6262097;28;20321;-54
2022/08/06 02:12:57;;;;;;;2.07;1.77;;;15.30;1.00;;;;;;6280886;28;20316;-54
2022/08/06 02:16:10;;;;;;;2.17;2.10;;;15.30;1.00;;;;;;6254562;28;20268;-54
2022/08/06 02:19:15;;;;;;;1.90;1.90;;;15.20;1.00;;;;;;6258217;28;20258;-53
2022/08/06 02:22:35;;;;;;;2.40;2.30;;;15.20;1.00;;;;;;6260415;28;20238;-55
2022/08/06 02:25:40;;;;;;;3.47;2.30;;;15.10;1.00;;;;;;6282544;28;20306;-55
2022/08/06 02:28:44;;;;;;;2.50;2.40;;;15.10;1.00;;;;;;6265410;28;20384;-54
2022/08/06 02:31:54;;;;;;;4.17;2.20;;;15.10;1.00;;;;;;6258736;28;20226;-56
2022/08/06 02:35:04;;;;;;;2.27;2.17;;;15.00;1.00;;;;;;6282544;28;20350;-53
2022/08/06 02:38:15;;;;;;;2.20;2.10;;;15.00;1.00;;;;;;6283478;28;20371;-55
2022/08/06 02:41:22;;;;;;;2.20;2.17;;;15.00;1.00;;;;;;6271988;28;20238;-53
2022/08/06 02:44:35;;;;;;;2.67;1.90;;;14.90;1.00;;;;;;6258226;28;20238;-55
2022/08/06 02:47:47;;;;;;;2.33;2.13;;;14.80;1.00;;;;;;6281591;28;20243;-55
2022/08/06 02:51:08;;;;;;;2.00;1.90;;;14.80;1.00;;;;;;6258334;28;20455;-55
2022/08/06 02:54:38;;;;;;;2.00;2.00;;;14.80;1.00;;;;;;6275849;28;20708;-55
2022/08/06 02:57:52;;;;;;;2.10;2.00;;;14.70;1.00;;;;;;6276401;28;20226;-55
2022/08/06 03:01:05;;;;;;;2.63;2.50;;;14.80;1.00;;;;;;6257905;28;20265;-55
2022/08/06 03:04:14;;;;;;;3.07;2.33;;;14.70;1.00;;;;;;6273396;28;20221;-54
2022/08/06 03:07:20;;;;;;;2.10;2.00;;;14.70;1.00;;;;;;6256865;28;20614;-54
2022/08/06 03:10:31;;;;;;;2.30;2.30;;;14.60;1.00;;;;;;6257824;28;20758;-54
2022/08/06 03:13:38;;;;;;;2.30;2.20;;;14.60;1.00;;;;;;6257868;28;20625;-54
2022/08/06 03:16:42;;;;;;;2.60;2.50;;;14.60;1.00;;;;;;6257650;28;20229;-55
2022/08/06 03:19:54;;;;;;;2.60;2.40;;;14.60;1.00;;;;;;6273158;28;20386;-55
2022/08/06 03:23:06;;;;;;;2.63;2.50;;;14.50;1.00;;;;;;6282943;28;20779;-52
2022/08/06 03:26:11;;;;;;;2.17;2.10;;;14.50;1.00;;;;;;6277609;28;20332;-54
2022/08/06 03:29:14;;;;;;;3.40;2.13;;;14.50;1.00;;;;;;6286696;28;20630;-55
2022/08/06 03:32:17;;;;;;;2.23;2.13;;;14.50;1.00;;;;;;6273535;28;20236;-54
2022/08/06 03:35:43;;;;;;;2.33;2.13;;;14.50;1.00;;;;;;6286338;28;20459;-55
2022/08/06 03:38:57;;;;;;;2.30;2.20;;;14.50;1.00;;;;;;6283014;28;20279;-54
2022/08/06 03:42:01;;;;;;;2.10;2.00;;;14.50;1.00;;;;;;6283621;28;20371;-54
2022/08/06 03:45:11;;;;;;;2.57;2.40;;;14.40;1.00;;;;;;6286431;28;20229;-54
2022/08/06 03:48:39;;;;;;;2.50;2.50;;;14.40;1.00;;;;;;6285635;28;20233;-55
2022/08/06 03:51:46;;;;;;;2.33;2.33;;;14.40;1.00;;;;;;6271312;28;20230;-51
2022/08/06 03:55:01;;;;;;;3.17;2.87;;;14.40;1.00;;;;;;6286184;28;20294;-54
2022/08/06 03:58:11;;;;;;;2.33;2.23;;;14.40;1.00;;;;;;6283894;28;20263;-55
2022/08/06 04:01:34;;;;;;;3.73;2.53;;;14.40;1.00;;;;;;6281429;28;20332;-54
2022/08/06 04:04:52;;;;;;;2.67;2.50;;;14.40;1.00;;;;;;6286719;28;20240;-54
2022/08/06 04:08:01;;;;;;;2.27;2.17;;;14.30;1.00;;;;;;6279304;28;20236;-52
2022/08/06 04:11:08;;;;;;;2.60;2.40;;;14.30;1.00;;;;;;6286326;28;20402;-54
2022/08/06 04:14:31;;;;;;;2.73;2.63;;;14.30;1.00;;;;;;6270577;28;20231;-54
2022/08/06 04:17:36;;;;;;;2.57;2.40;;;14.40;1.00;;;;;;6286492;28;20229;-55
2022/08/06 04:20:47;;;;;;;5.07;2.80;;;14.40;1.00;;;;;;6286184;28;20277;-54
2022/08/06 04:23:56;;;;;;;2.80;2.70;;;14.40;1.00;;;;;;6281430;28;20233;-56
2022/08/06 04:27:01;;;;;;;2.63;2.50;;;14.30;1.00;;;;;;6286336;28;20292;-57
2022/08/06 04:30:12;;;;;;;2.40;2.40;;;14.30;1.00;;;;;;6283011;28;20242;-53
2022/08/06 04:33:19;;;;;;;3.83;2.63;;;14.40;1.00;;;;;;6285208;28;20363;-54
2022/08/06 04:36:36;;;;;;;2.90;2.60;;;14.30;1.00;;;;;;6276669;28;20488;-53
2022/08/06 04:39:44;;;;;;;2.73;2.53;;;14.40;1.00;;;;;;6279414;28;20229;-55
2022/08/06 04:42:52;;;;;;;2.33;2.23;;;14.40;1.00;;;;;;6283477;28;20241;-54
2022/08/06 04:45:57;;;;;;;2.60;2.40;;;14.40;1.00;;;;;;6283004;28;20292;-54
2022/08/06 04:49:19;;;;;;;2.53;2.33;;;14.60;1.00;;;;;;6283522;28;20448;-55
2022/08/06 04:52:23;;;;;;;2.70;2.50;;;14.60;1.00;;;;;;6285798;28;20237;-54
2022/08/06 04:55:41;;;;;;;2.30;2.30;;;14.70;1.00;;;;;;6285466;28;20226;-55
2022/08/06 04:59:04;;;;;;;2.53;2.37;;;14.70;1.00;;;;;;6283011;28;20806;-54
2022/08/06 05:02:09;;;;;;;2.60;2.50;;;14.70;1.00;;;;;;6285575;28;20370;-54
2022/08/06 05:05:16;;;;;;;3.43;2.63;;;14.70;1.00;;;;;;6283980;28;20584;-54
2022/08/06 05:08:25;;;;;;;2.60;2.50;;;14.70;1.00;;;;;;6281823;28;20253;-55
2022/08/06 05:11:34;;;;;;;2.87;2.40;;;14.70;1.00;;;;;;6285716;28;20229;-55
2022/08/06 05:15:07;;;;;;;3.67;3.00;;;14.70;1.00;;;;;;6282037;28;20225;-54
2022/08/06 05:18:14;;;;;;;2.70;2.50;;;14.70;1.00;;;;;;6285889;28;20375;-55
2022/08/06 05:21:39;;;;;;;4.00;2.60;;;14.80;1.00;;;;;;6284858;28;20252;-55
2022/08/06 05:25:04;;;;;;;2.47;2.40;;;14.70;1.00;;;;;;6282057;28;20241;-54
2022/08/06 05:28:22;;;;;;;2.50;2.50;;;14.70;1.00;;;;;;6280298;28;20233;-54
2022/08/06 05:31:30;;;;;;;2.90;2.70;;;14.80;1.00;;;;;;6279218;28;20245;-54
2022/08/06 05:34:40;;;;;;;3.47;3.30;;;14.80;1.00;;;;;;6284904;28;20627;-54
2022/08/06 05:37:53;;;;;;;4.20;3.00;;;14.80;1.00;;;;;;6284416;28;20240;-56
2022/08/06 05:41:08;;;;;;;2.37;2.30;;;14.80;1.00;;;;;;6282098;28;20252;-54
2022/08/06 05:44:13;;;;;;;3.10;2.90;;;14.80;1.00;;;;;;6284089;28;20240;-54
2022/08/06 05:47:29;;;;;;;5.57;3.03;;;14.90;1.00;;;;;;6281981;28;20840;-54
2022/08/06 05:50:58;;;;;;;2.60;2.50;;;15.00;1.00;;;;;;6278096;28;20233;-55
2022/08/06 05:54:09;;;;;;;5.30;2.67;;;15.40;1.00;;;;;;6284635;28;20233;-54
2022/08/06 05:57:25;;;;;;;2.50;2.40;;;15.80;1.00;;;;;;6272267;28;20655;-55
2022/08/06 06:00:45;;;;;;;2.83;2.43;;;16.20;1.00;;;;;;6280042;28;20226;-55
2022/08/06 06:03:48;;;;;;;3.20;2.63;;;16.70;1.00;;;;;;6277721;28;20233;-54
2022/08/06 06:06:52;;;;;;;1.93;1.83;;;17.00;1.00;;;;;;6278122;28;20379;-54
2022/08/06 06:09:57;;;;;;;2.33;2.20;;;17.20;1.00;;;;;;6283345;28;20237;-53
2022/08/06 06:13:07;;;;;;;3.57;2.13;;;17.40;1.00;;;;;;6285374;28;20272;-53
2022/08/06 06:16:37;;;;;;;2.20;2.00;;;17.70;1.00;;;;;;6269201;28;20545;-55
2022/08/06 06:19:50;;;;;;;1.80;1.80;;;17.80;1.00;;;;;;6283641;28;20229;-54
2022/08/06 06:23:00;;;;;;;2.60;1.97;;;17.80;1.00;;;;;;6284235;28;20233;-55
2022/08/06 06:26:12;;;;;;;2.20;1.90;;;17.90;1.00;;;;;;6277637;28;20732;-55
2022/08/06 06:29:41;;;;;;;3.37;2.07;;;17.90;1.00;;;;;;6276796;28;20257;-55
2022/08/06 06:33:15;;;;;;;1.93;1.83;;;18.00;1.00;;;;;;6274394;28;20633;-55
2022/08/06 06:36:27;;;;;;;1.90;1.80;;;18.20;1.00;;;;;;6283980;28;20245;-53
2022/08/06 06:39:35;;;;;;;2.70;2.00;;;18.50;1.00;;;;;;6275268;28;20291;-55
2022/08/06 06:42:47;;;;;;;2.17;2.00;;;18.60;1.00;;;;;;6283041;28;20324;-54
2022/08/06 06:45:57;;;;;;;2.23;2.00;;;18.80;1.00;;;;;;6279691;28;20229;-56
2022/08/06 06:49:26;;;;;;;2.43;2.10;;;18.90;1.00;;;;;;6255388;28;20241;-53
2022/08/06 06:52:52;;;;;;;2.13;1.90;;;19.40;1.00;;;;;;6280680;28;20553;-55
2022/08/06 06:55:57;;;;;;;2.20;1.50;;;19.50;1.00;;;;;;6279693;28;20226;-50
2022/08/06 06:59:13;;;;;;;3.40;2.00;;;19.80;1.00;;;;;;6282936;28;20233;-55
2022/08/06 07:02:24;;;;;;;1.80;1.80;;;19.60;1.00;;;;;;6284603;28;20229;-54
2022/08/06 07:05:34;;;;;;;1.87;1.70;;;19.80;1.00;;;;;;6283101;28;20339;-55
2022/08/06 07:08:58;;;;;;;4.50;2.13;;;19.80;1.00;;;;;;6285135;28;20242;-55
2022/08/06 07:12:19;;;;;;;3.50;1.70;;;19.60;1.00;;;;;;6284633;28;20248;-55
2022/08/06 07:15:23;;;;;;;1.87;1.77;;;19.60;1.00;;;;;;6280846;28;20237;-54
2022/08/06 07:18:27;;;;;;;1.70;1.70;;;19.80;1.00;;;;;;6288709;28;20786;-55
2022/08/06 07:21:40;;;;;;;2.07;1.90;;;19.80;1.00;;;;;;6289294;28;20363;-55
2022/08/06 07:24:44;;;;;;;2.93;1.87;;;19.80;1.00;;;;;;6289026;28;20685;-55
2022/08/06 07:27:51;;;;;;;2.00;1.90;;;19.60;1.00;;;;;;6261781;28;20233;-53
2022/08/06 07:30:59;;;;;;;2.47;2.30;;;19.70;1.00;;;;;;6284856;28;20272;-55
2022/08/06 07:34:11;;;;;;;5.00;2.43;;;19.50;1.00;;;;;;6287691;28;20229;-56
2022/08/06 07:37:21;;;;;;;2.57;2.43;;;19.50;1.00;;;;;;6286237;28;20774;-55
2022/08/06 07:40:27;;;;;;;3.43;2.10;;;19.50;1.00;;;;;;6281718;28;20469;-55
2022/08/06 07:43:34;;;;;;;2.13;2.03;;;19.50;1.00;;;;;;6288181;28;20229;-53
2022/08/06 07:46:42;;;;;;;2.57;2.37;;;19.70;1.00;;;;;;6287925;28;20231;-54
2022/08/06 07:49:56;;;;;;;2.40;2.20;;;19.70;1.00;;;;;;6287254;28;20255;-55
2022/08/06 07:53:04;;;;;;;2.17;2.10;;;19.70;1.00;;;;;;6287678;28;20237;-55
2022/08/06 07:56:09;;;;;;;2.40;2.10;;;19.90;1.00;;;;;;6260610;28;20243;-51
2022/08/06 07:59:13;;;;;;;1.60;1.60;;;20.00;1.00;;;;;;6286481;28;20709;-56
2022/08/06 08:02:17;;;;;;;1.80;1.80;;;19.80;1.00;;;;;;6286880;28;20719;-55
2022/08/06 08:09:07;;;;;;;1.80;1.80;;;19.90;1.00;;;;;;6287265;28;20240;-55
2022/08/06 08:12:13;;;;;;;3.60;2.20;;;19.80;1.00;;;;;;6285251;28;20233;-53
2022/08/06 08:15:37;;;;;;;1.70;1.60;;;19.80;1.00;;;;;;6273102;28;20389;-54
2022/08/06 08:18:45;;;;;;;4.93;1.70;;;19.80;1.00;;;;;;6286396;28;20351;-54
2022/08/06 08:21:49;;;;;;;2.90;1.63;;;19.70;1.00;;;;;;6285829;28;20247;-56
2022/08/06 08:24:55;;;;;;;2.10;1.90;;;19.60;1.00;;;;;;6275303;28;20244;-54
2022/08/06 08:27:58;;;;;;;2.63;2.10;;;19.60;1.00;;;;;;6287065;28;20710;-54
2022/08/06 08:31:05;;;;;;;2.57;2.00;;;19.60;1.00;;;;;;6284486;28;20229;-54
2022/08/06 08:34:22;;;;;;;2.23;2.10;;;19.70;1.00;;;;;;6284442;28;20687;-53
2022/08/06 08:37:29;;;;;;;2.00;1.53;;;19.80;1.00;;;;;;6286006;28;20418;-55
2022/08/06 08:40:36;;;;;;;1.80;1.70;;;19.80;1.00;;;;;;6284685;28;20629;-55
2022/08/06 08:43:48;;;;;;;2.13;1.80;;;19.70;1.00;;;;;;6281794;28;20314;-54
2022/08/06 08:47:09;;;;;;;1.70;1.70;;;19.70;1.00;;;;;;6282741;28;20857;-55
2022/08/06 08:50:16;;;;;;;1.63;1.60;;;19.80;1.00;;;;;;6277922;28;20233;-55
2022/08/06 08:53:29;;;;;;;1.80;1.77;;;19.80;1.00;;;;;;6280828;28;20622;-54
2022/08/06 08:56:50;;;;;;;4.43;1.60;;;20.00;1.00;;;;;;6282138;28;20221;-61
2022/08/06 09:00:13;;;;;;;1.40;1.40;;;20.10;1.00;;;;;;6282809;28;20241;-59
2022/08/06 09:03:28;;;;;;;1.50;1.40;;;20.40;1.00;;;;;;6277855;28;20264;-55
2022/08/06 09:06:34;;;;;;;1.20;1.20;;;20.60;1.00;;;;;;6283659;28;20240;-55
2022/08/06 09:09:42;;;;;;;1.67;1.57;;;20.80;1.00;;;;;;6282990;28;20322;-55
2022/08/06 09:13:04;;;;;;;1.97;1.87;;;20.70;1.00;;;;;;6285512;28;20225;-54
2022/08/06 09:16:27;;;;;;;1.63;1.60;;;20.50;1.00;;;;;;6282998;28;20238;-57
2022/08/06 09:19:34;;;;;;;1.20;1.10;;;20.50;1.00;;;;;;6284673;28;20781;-54
2022/08/06 09:22:44;;;;;;;1.67;1.50;;;20.70;1.00;;;;;;6284298;28;20229;-56
2022/08/06 09:25:49;;;;;;;2.00;1.50;;;21.00;1.00;;;;;;6283406;28;20225;-55
2022/08/06 09:28:55;;;;;;;1.97;1.87;;;21.30;1.00;;;;;;6284415;28;20507;-54
2022/08/06 09:31:59;;;;;;;1.30;1.30;;;21.30;1.00;;;;;;6284884;28;20799;-55
2022/08/06 09:35:02;;;;;;;1.20;1.20;;;21.10;1.00;;;;;;6284243;28;20612;-54
2022/08/06 09:38:18;;;;;;;1.73;1.63;;;21.00;1.00;;;;;;6284523;28;20393;-53
2022/08/06 09:41:23;;;;;;;1.20;1.20;;;21.00;1.00;;;;;;6284350;28;20245;-52
2022/08/06 09:44:30;;;;;;;1.57;1.50;;;21.20;1.00;;;;;;6275429;28;20264;-54
2022/08/06 09:47:43;;;;;;;1.70;1.60;;;21.50;1.00;;;;;;6284116;28;20303;-54
2022/08/06 09:51:01;;;;;;;1.40;1.40;;;21.50;1.00;;;;;;6276568;28;20572;-53
2022/08/06 09:54:08;;;;;;;1.50;1.40;;;21.60;1.00;;;;;;6284081;28;20465;-54
2022/08/06 09:57:28;;;;;;;1.90;1.53;;;21.40;1.00;;;;;;6283329;28;20608;-53
2022/08/06 10:00:40;;;;;;;1.57;1.57;;;21.10;1.00;;;;;;6275861;28;20241;-55
2022/08/06 10:03:48;;;;;;;2.33;1.63;;;20.90;1.00;;;;;;6282896;28;20229;-54
2022/08/06 10:07:07;;;;;;;1.53;1.50;;;20.80;1.00;;;;;;6280003;28;20371;-53
2022/08/06 10:10:10;;;;;;;2.70;1.50;;;20.90;1.00;;;;;;6282755;28;20243;-54
2022/08/06 10:13:19;;;;;;;2.17;2.10;;;21.00;1.00;;;;;;6283648;28;20535;-54
2022/08/06 10:16:28;;;;;;;1.67;1.57;;;21.50;1.00;;;;;;6277707;28;20707;-54
2022/08/06 10:19:31;;;;;;;2.60;1.50;;;21.70;1.00;;;;;;6283039;28;20233;-56
2022/08/06 10:22:50;;;;;;;1.97;1.60;;;21.90;1.00;;;;;;6279360;28;20767;-53
2022/08/06 10:25:53;;;;;;;3.23;1.80;;;21.90;1.00;;;;;;6281065;28;20233;-55
2022/08/06 10:29:03;;;;;;;2.67;1.93;;;21.70;1.00;;;;;;6274618;28;20264;-53
2022/08/06 10:32:10;;;;;;;1.40;1.30;;;21.80;1.00;;;;;;6276920;28;20233;-54
2022/08/06 10:35:17;;;;;;;1.47;1.47;;;22.00;1.00;;;;;;6281972;28;20319;-56
2022/08/06 10:38:26;;;;;;;1.80;1.70;;;22.10;1.00;;;;;;6282653;28;20241;-54
2022/08/06 10:41:40;;;;;;;1.40;1.40;;;22.20;1.00;;;;;;6279902;28;20229;-54
2022/08/06 10:45:05;;;;;;;1.60;1.60;;;22.40;1.00;;;;;;6283516;28;20499;-54
2022/08/06 10:48:17;;;;;;;1.53;1.50;;;22.50;1.00;;;;;;6282916;28;20387;-55
2022/08/06 10:51:42;;;;;;;1.40;1.40;;;22.80;1.00;;;;;;6279879;28;20301;-55
2022/08/06 10:55:00;;;;;;;1.60;1.50;;;23.00;1.00;;;;;;6281325;28;20445;-53
2022/08/06 10:58:03;;;;;;;1.77;1.67;;;23.00;1.00;;;;;;6283149;28;20239;-53
2022/08/06 11:01:09;;;;;;;2.77;1.70;;;22.60;1.00;;;;;;6282876;28;20312;-53
2022/08/06 11:04:22;;;;;;;1.83;1.73;;;22.40;1.00;;;;;;6276654;28;20271;-54
2022/08/06 11:07:48;;;;;;;1.53;1.50;;;22.10;1.00;;;;;;6275871;28;20233;-53
2022/08/06 11:11:38;;;;;;;4.53;1.60;;;21.90;1.00;;;;;;6272927;28;20383;-53
2022/08/06 11:14:42;;;;;;;2.50;1.60;;;21.60;1.00;;;;;;6276757;28;20237;-54
2022/08/06 11:17:47;;;;;;;1.60;1.30;;;21.80;1.00;;;;;;6282752;28;20666;-54
2022/08/06 11:20:54;;;;;;;1.40;1.40;;;22.00;1.00;;;;;;6282558;28;20793;-54
2022/08/06 11:24:01;;;;;;;1.90;1.80;;;22.20;1.00;;;;;;6279295;28;20233;-55
2022/08/06 11:27:05;;;;;;;1.60;1.60;;;22.20;1.00;;;;;;6275739;28;20268;-54
2022/08/06 11:30:14;;;;;;;1.90;1.80;;;22.40;1.00;;;;;;6277542;28;20612;-53
2022/08/06 11:33:19;;;;;;;1.33;1.33;;;22.70;1.00;;;;;;6281786;28;20436;-53
2022/08/06 11:36:28;;;;;;;1.30;1.30;;;23.10;1.00;;;;;;6282963;28;20237;-54
2022/08/06 11:39:30;;;;;;;1.60;1.60;;;23.20;1.00;;;;;;6275194;28;20245;-54
2022/08/06 11:42:49;;;;;;;2.63;1.67;;;23.10;1.00;;;;;;6282404;28;20233;-52
2022/08/06 11:46:21;;;;;;;1.17;1.07;;;23.10;1.00;;;;;;6281201;28;20248;-52
2022/08/06 11:49:40;;;;;;;1.40;1.40;;;23.00;1.00;;;;;;6278799;28;20612;-54
2022/08/06 11:52:47;;;;;;;1.37;1.30;;;22.70;1.00;;;;;;6288438;28;20326;-54
2022/08/06 11:56:04;;;;;;;1.37;1.30;;;22.40;1.00;;;;;;6286240;28;20233;-53
2022/08/06 11:59:15;;;;;;;1.30;1.20;;;22.40;1.00;;;;;;6282519;28;20734;-54
2022/08/06 12:02:54;;;;;;;1.63;1.63;;;22.50;1.00;;;;;;6287745;28;20347;-54
2022/08/06 12:05:59;;;;;;;1.80;1.40;;;22.50;1.00;;;;;;6286692;28;20234;-53
2022/08/06 12:09:10;;;;;;;1.40;1.40;;;22.40;1.00;;;;;;6285270;28;20237;-55
2022/08/06 12:12:36;;;;;;;1.73;1.63;;;22.30;1.00;;;;;;6279666;28;20237;-54
2022/08/06 12:15:40;;;;;;;2.20;1.50;;;22.20;1.00;;;;;;6286236;28;20229;-54
2022/08/06 12:19:07;;;;;;;1.37;1.37;;;22.40;1.00;;;;;;6281154;28;20257;-55
2022/08/06 12:22:10;;;;;;;3.40;1.47;;;22.50;1.00;;;;;;6284489;28;20240;-55
2022/08/06 12:25:13;;;;;;;1.53;1.23;;;22.80;1.00;;;;;;6283779;28;20287;-54
2022/08/06 12:28:19;;;;;;;1.30;1.20;;;22.90;1.00;;;;;;6285403;28;20305;-55
2022/08/06 12:31:30;;;;;;;1.37;1.30;;;22.80;1.00;;;;;;6285362;28;20241;-54
2022/08/06 12:34:47;;;;;;;1.50;1.50;;;23.00;1.00;;;;;;6274104;28;20378;-54
2022/08/06 12:38:00;;;;;;;1.30;1.30;;;23.10;1.00;;;;;;6285826;28;20306;-53
2022/08/06 12:41:07;;;;;;;3.27;1.30;;;23.40;1.00;;;;;;6284955;28;20610;-53
2022/08/06 12:44:14;;;;;;;1.20;1.20;;;23.60;1.00;;;;;;6277344;28;20308;-55
2022/08/06 12:47:37;;;;;;;1.60;1.10;;;23.90;1.00;;;;;;6271678;28;20237;-52
2022/08/06 12:51:06;;;;;;;1.30;1.30;;;24.00;1.00;;;;;;6280520;28;20237;-54
2022/08/06 12:54:16;;;;;;;1.40;1.40;;;24.00;1.00;;;;;;6285182;28;20238;-54
2022/08/06 12:57:30;;;;;;;1.33;1.23;;;24.20;1.00;;;;;;6277871;28;20378;-55
2022/08/06 13:00:57;;;;;;;1.33;1.33;;;24.10;1.00;;;;;;6279199;28;20500;-54
2022/08/06 13:04:02;;;;;;;3.43;1.50;;;24.00;1.00;;;;;;6272162;28;20237;-54
2022/08/06 13:07:12;;;;;;;1.40;1.40;;;24.20;1.00;;;;;;6285222;28;20242;-53
2022/08/06 13:10:16;;;;;;;1.40;1.33;;;24.40;1.00;;;;;;6285044;28;20383;-55
2022/08/06 13:13:39;;;;;;;1.23;1.23;;;24.50;1.00;;;;;;6279375;28;20232;-55
2022/08/06 13:17:12;;;;;;;1.20;1.20;;;24.60;1.00;;;;;;6279336;28;20234;-54
2022/08/06 13:20:40;;;;;;;1.40;1.40;;;24.50;1.00;;;;;;6277162;28;20245;-56
2022/08/06 13:23:49;;;;;;;1.30;1.30;;;24.30;1.00;;;;;;6280745;28;20233;-54
2022/08/06 13:26:54;;;;;;;1.53;1.53;;;24.00;1.00;;;;;;6282523;28;20256;-54
2022/08/06 13:30:02;;;;;;;1.17;1.17;;;24.00;1.00;;;;;;6283850;28;20241;-53
2022/08/06 13:33:25;;;;;;;1.40;1.40;;;23.90;1.00;;;;;;6284134;28;20237;-55
2022/08/06 13:36:29;;;;;;;1.33;1.33;;;24.10;1.00;;;;;;6280599;28;20241;-55
2022/08/06 13:39:50;;;;;;;1.27;1.27;;;24.30;1.00;;;;;;6279691;28;20241;-55
2022/08/06 13:42:55;;;;;;;1.27;1.23;;;24.60;1.00;;;;;;6284266;28;20266;-55
2022/08/06 13:46:06;;;;;;;1.33;1.23;;;24.70;1.00;;;;;;6284263;28;20315;-54
2022/08/06 13:49:14;;;;;;;2.03;1.70;;;24.60;1.00;;;;;;6282854;28;20603;-55
2022/08/06 13:52:17;;;;;;;1.30;1.30;;;24.80;1.00;;;;;;6284489;28;20332;-55
2022/08/06 13:55:26;;;;;;;1.53;1.53;;;24.90;1.00;;;;;;6278258;28;20520;-56
2022/08/06 13:58:49;;;;;;;1.50;1.50;;;25.00;1.00;;;;;;6278958;28;20240;-56
2022/08/06 14:01:54;;;;;;;1.30;1.30;;;25.00;1.00;;;;;;6283681;28;20240;-55
2022/08/06 14:05:00;;;;;;;1.53;1.53;;;24.80;1.00;;;;;;6283042;28;20759;-55
2022/08/06 14:08:05;;;;;;;2.40;1.40;;;24.80;1.00;;;;;;6280821;28;20236;-54
2022/08/06 14:11:16;;;;;;;1.70;1.27;;;24.70;1.00;;;;;;6283370;28;20479;-55
2022/08/06 14:14:24;;;;;;;1.37;1.37;;;24.70;1.00;;;;;;6282021;28;20688;-55
2022/08/06 14:17:29;;;;;;;3.93;1.40;;;24.60;1.00;;;;;;6275753;28;20253;-56
2022/08/06 14:20:37;;;;;;;1.23;1.23;;;24.50;1.00;;;;;;6282655;28;20291;-53
2022/08/06 14:23:43;;;;;;;1.40;1.30;;;24.30;1.00;;;;;;6283551;28;20382;-55
2022/08/06 14:27:08;;;;;;;1.60;1.60;;;24.20;1.00;;;;;;6283904;28;20701;-54
2022/08/06 14:30:27;;;;;;;1.20;1.20;;;24.00;1.00;;;;;;6283262;28;20249;-56
2022/08/06 14:33:36;;;;;;;1.67;1.50;;;23.70;1.00;;;;;;6283918;28;20237;-56
2022/08/06 14:36:49;;;;;;;1.80;1.70;;;23.40;1.00;;;;;;6278576;28;20237;-56
2022/08/06 14:39:53;;;;;;;1.90;1.80;;;23.30;1.00;;;;;;6281541;28;20410;-55
2022/08/06 14:46:26;;;;;;;1.67;1.67;;;23.10;1.00;;;;;;6278206;28;20726;-55
2022/08/06 14:49:32;;;;;;;2.30;1.80;;;23.10;1.00;;;;;;6275561;28;20221;-53
2022/08/06 14:52:53;;;;;;;1.37;1.37;;;23.30;1.00;;;;;;6284253;28;20462;-55
2022/08/06 14:55:57;;;;;;;2.00;1.53;;;23.60;1.00;;;;;;6283675;28;20450;-58
2022/08/06 14:59:11;;;;;;;2.10;1.73;;;23.70;1.00;;;;;;6281919;28;20241;-51
2022/08/06 15:02:15;;;;;;;1.33;1.30;;;23.70;1.00;;;;;;6279582;28;20221;-56
2022/08/06 15:05:18;;;;;;;1.17;1.17;;;23.90;1.00;;;;;;6283111;28;20244;-55
2022/08/06 15:08:41;;;;;;;2.43;1.40;;;24.00;1.00;;;;;;6276282;28;20252;-54
2022/08/06 15:11:50;;;;;;;1.70;1.70;;;24.00;1.00;;;;;;6280112;28;20225;-54
2022/08/06 15:15:05;;;;;;;1.50;1.50;;;24.00;1.00;;;;;;6283011;28;20320;-54
2022/08/06 15:18:16;;;;;;;1.53;1.40;;;23.90;1.00;;;;;;6282374;28;20375;-54
2022/08/06 15:21:39;;;;;;;1.40;1.40;;;23.80;1.00;;;;;;6279233;28;20718;-55
2022/08/06 15:24:57;;;;;;;1.60;1.50;;;23.70;1.00;;;;;;6286925;28;20589;-54
2022/08/06 15:28:05;;;;;;;1.40;1.40;;;23.50;1.00;;;;;;6280341;28;20225;-54
2022/08/06 15:31:10;;;;;;;1.70;1.60;;;23.60;1.00;;;;;;6283603;28;20722;-53
2022/08/06 15:34:13;;;;;;;1.23;1.20;;;23.70;1.00;;;;;;6289151;28;20416;-54
2022/08/06 15:37:22;;;;;;;1.50;1.50;;;23.60;1.00;;;;;;6287948;28;20229;-54
2022/08/06 15:40:45;;;;;;;1.50;1.50;;;23.90;1.00;;;;;;6277932;28;20447;-54
2022/08/06 15:43:48;;;;;;;1.40;1.40;;;24.00;1.00;;;;;;6293198;28;20278;-53
2022/08/06 15:46:55;;;;;;;2.43;1.53;;;24.20;1.00;;;;;;6287042;28;20335;-54
2022/08/06 15:50:01;;;;;;;1.13;1.13;;;24.10;1.00;;;;;;6285050;28;20257;-54
2022/08/06 15:53:07;;;;;;;1.27;1.27;;;23.90;1.00;;;;;;6287773;28;20256;-54
2022/08/06 15:56:26;;;;;;;1.50;1.50;;;23.80;1.00;;;;;;6279096;28;20234;-55
2022/08/06 15:59:49;;;;;;;1.73;1.73;;;23.80;1.00;;;;;;6279935;28;20724;-55
2022/08/06 16:02:55;;;;;;;2.07;1.50;;;23.70;1.00;;;;;;6287490;28;20320;-54
2022/08/06 16:06:08;;;;;;;1.30;1.30;;;23.80;1.00;;;;;;6287057;28;20240;-55
2022/08/06 16:09:27;;;;;;;1.87;1.87;;;23.80;1.00;;;;;;6278323;28;20270;-55
2022/08/06 16:12:30;;;;;;;1.43;1.43;;;23.60;1.00;;;;;;6287240;28;20829;-54
2022/08/06 16:15:33;;;;;;;1.80;1.40;;;23.60;1.00;;;;;;6277202;28;20538;-54
2022/08/06 16:18:42;;;;;;;1.50;1.40;;;23.50;1.00;;;;;;6286319;28;20225;-54
2022/08/06 16:21:54;;;;;;;1.13;1.13;;;23.50;1.00;;;;;;6287143;28;20236;-55
2022/08/06 16:24:58;;;;;;;1.47;1.47;;;23.50;1.00;;;;;;6286149;28;20234;-55
2022/08/06 16:28:01;;;;;;;1.60;1.50;;;23.30;1.00;;;;;;6282097;28;20229;-55
2022/08/06 16:31:04;;;;;;;2.87;1.70;;;23.20;1.00;;;;;;6286074;28;20498;-54
2022/08/06 16:34:19;;;;;;;1.60;1.50;;;23.10;1.00;;;;;;6285256;28;20236;-54
2022/08/06 16:37:32;;;;;;;1.60;1.47;;;23.00;1.00;;;;;;6280627;28;20316;-54
2022/08/06 16:40:41;;;;;;;1.70;1.70;;;22.90;1.00;;;;;;6286097;28;20437;-54
2022/08/06 16:43:55;;;;;;;1.60;1.60;;;22.80;1.00;;;;;;6282991;28;20316;-51
2022/08/06 16:46:58;;;;;;;1.53;1.47;;;22.70;1.00;;;;;;6286700;28;20229;-56
2022/08/06 16:50:10;;;;;;;2.30;1.20;;;22.70;1.00;;;;;;6285974;28;20284;-54
2022/08/06 16:53:29;;;;;;;2.30;2.20;;;22.70;1.00;;;;;;6284818;28;20237;-54
2022/08/06 16:56:52;;;;;;;2.63;1.77;;;22.80;1.00;;;;;;6280658;28;20272;-55